createdAt,value
2023-12-16T00:00:37.069Z,21.63
2023-12-16T00:01:40.351Z,21.62
2023-12-16T00:02:37.049Z,21.62
2023-12-16T00:03:37.054Z,21.63
2023-12-16T00:04:37.127Z,21.61
2023-12-16T00:05:37.053Z,21.62
2023-12-16T00:06:37.128Z,21.61
2023-12-16T00:07:37.338Z,21.61
2023-12-16T00:08:37.170Z,21.61
2023-12-16T00:09:37.229Z,21.61
2023-12-16T00:10:37.290Z,21.62
2023-12-16T00:11:37.358Z,21.63
2023-12-16T00:12:37.407Z,21.59
2023-12-16T00:13:37.510Z,21.61
2023-12-16T00:14:37.631Z,21.62
2023-12-16T00:15:37.604Z,21.63
2023-12-16T00:16:37.637Z,21.63
2023-12-16T00:17:38.321Z,21.62
2023-12-16T00:18:37.906Z,21.62
2023-12-16T00:19:37.855Z,21.62
2023-12-16T00:20:37.858Z,21.62
2023-12-16T00:21:37.904Z,21.61
2023-12-16T00:22:37.948Z,21.62
2023-12-16T00:23:38.032Z,21.59
2023-12-16T00:24:38.914Z,21.62
2023-12-16T00:25:38.430Z,21.61
2023-12-16T00:26:38.172Z,21.61
2023-12-16T00:27:38.450Z,21.62
2023-12-16T00:28:38.288Z,21.61
2023-12-16T00:29:38.351Z,21.62
2023-12-16T00:30:38.409Z,21.61
2023-12-16T00:31:38.545Z,21.59
2023-12-16T00:32:38.556Z,21.61
2023-12-16T00:33:38.639Z,21.58
2023-12-16T00:34:38.695Z,21.61
2023-12-16T00:35:38.729Z,21.61
2023-12-16T00:36:38.778Z,21.61
2023-12-16T00:37:39.303Z,21.61
2023-12-16T00:38:38.902Z,21.59
2023-12-16T00:39:38.964Z,21.61
2023-12-16T00:40:39.089Z,21.58
2023-12-16T00:41:39.091Z,21.61
2023-12-16T00:42:39.172Z,21.61
2023-12-16T00:43:39.241Z,21.59
2023-12-16T00:44:39.294Z,21.62
2023-12-16T00:45:39.347Z,21.59
2023-12-16T00:46:39.440Z,21.58
2023-12-16T00:47:40.369Z,21.61
2023-12-16T00:48:39.611Z,21.56
2023-12-16T00:49:39.693Z,21.59
2023-12-16T00:50:39.778Z,21.59
2023-12-16T00:51:39.744Z,21.61
2023-12-16T00:52:39.768Z,21.58
2023-12-16T00:53:39.828Z,21.58
2023-12-16T00:54:39.884Z,21.59
2023-12-16T00:55:40.003Z,21.58
2023-12-16T00:56:40.028Z,21.58
2023-12-16T00:57:40.399Z,21.59
2023-12-16T00:58:40.137Z,21.61
2023-12-16T00:59:40.202Z,21.58
2023-12-16T01:00:40.290Z,21.58
2023-12-16T01:01:40.438Z,21.59
2023-12-16T01:02:40.380Z,21.59
2023-12-16T01:03:40.513Z,21.56
2023-12-16T01:04:40.580Z,21.59
2023-12-16T01:05:40.678Z,21.56
2023-12-16T01:06:40.599Z,21.59
2023-12-16T01:07:40.959Z,21.58
2023-12-16T01:08:40.711Z,21.58
2023-12-16T01:09:40.866Z,21.56
2023-12-16T01:10:40.850Z,21.61
2023-12-16T01:11:40.933Z,21.56
2023-12-16T01:12:41.940Z,21.55
2023-12-16T01:13:41.038Z,21.59
2023-12-16T01:14:41.082Z,21.56
2023-12-16T01:15:41.140Z,21.56
2023-12-16T01:16:41.200Z,21.58
2023-12-16T01:17:41.696Z,21.56
2023-12-16T01:18:41.401Z,21.58
2023-12-16T01:19:41.399Z,21.58
2023-12-16T01:20:41.933Z,21.56
2023-12-16T01:21:41.447Z,21.56
2023-12-16T01:22:41.504Z,21.56
2023-12-16T01:23:41.567Z,21.56
2023-12-16T01:24:41.687Z,21.56
2023-12-16T01:25:41.659Z,21.56
2023-12-16T01:26:41.730Z,21.58
2023-12-16T01:27:41.778Z,21.56
2023-12-16T01:28:41.817Z,21.55
2023-12-16T01:29:41.874Z,21.58
2023-12-16T01:30:41.955Z,21.55
2023-12-16T01:31:42.033Z,21.55
2023-12-16T01:32:42.059Z,21.56
2023-12-16T01:33:42.110Z,21.56
2023-12-16T01:34:42.225Z,21.56
2023-12-16T01:35:42.185Z,21.56
2023-12-16T01:36:42.352Z,21.56
2023-12-16T01:37:42.327Z,21.58
2023-12-16T01:38:42.409Z,21.56
2023-12-16T01:39:42.520Z,21.56
2023-12-16T01:40:42.657Z,21.56
2023-12-16T01:41:42.939Z,21.56
2023-12-16T01:42:42.685Z,21.53
2023-12-16T01:43:42.725Z,21.56
2023-12-16T01:44:42.781Z,21.53
2023-12-16T01:45:42.934Z,21.56
2023-12-16T01:46:43.004Z,21.55
2023-12-16T01:47:43.287Z,21.56
2023-12-16T01:48:43.218Z,21.55
2023-12-16T01:49:43.945Z,21.56
2023-12-16T01:50:43.147Z,21.56
2023-12-16T01:51:43.228Z,21.55
2023-12-16T01:52:43.271Z,21.53
2023-12-16T01:53:43.330Z,21.55
2023-12-16T01:54:43.416Z,21.55
2023-12-16T01:55:43.464Z,21.56
2023-12-16T01:56:43.525Z,21.55
2023-12-16T01:57:43.616Z,21.55
2023-12-16T01:58:43.678Z,21.55
2023-12-16T01:59:44.533Z,21.55
2023-12-16T02:00:43.845Z,21.55
2023-12-16T02:01:43.978Z,21.56
2023-12-16T02:02:43.915Z,21.55
2023-12-16T02:03:44.045Z,21.53
2023-12-16T02:04:44.086Z,21.52
2023-12-16T02:05:44.215Z,21.52
2023-12-16T02:06:44.395Z,21.55
2023-12-16T02:07:44.319Z,21.53
2023-12-16T02:08:44.316Z,21.52
2023-12-16T02:09:44.483Z,21.52
2023-12-16T02:10:44.488Z,21.53
2023-12-16T02:11:44.536Z,21.51
2023-12-16T02:12:44.577Z,21.53
2023-12-16T02:13:44.641Z,21.55
2023-12-16T02:14:44.699Z,21.53
2023-12-16T02:15:44.835Z,21.52
2023-12-16T02:16:44.796Z,21.52
2023-12-16T02:17:44.890Z,21.52
2023-12-16T02:18:45.029Z,21.52
2023-12-16T02:19:45.156Z,21.53
2023-12-16T02:20:45.080Z,21.52
2023-12-16T02:21:45.148Z,21.52
2023-12-16T02:22:45.192Z,21.53
2023-12-16T02:23:45.248Z,21.51
2023-12-16T02:24:45.320Z,21.52
2023-12-16T02:25:45.386Z,21.51
2023-12-16T02:26:45.417Z,21.51
2023-12-16T02:27:45.572Z,21.49
2023-12-16T02:28:45.547Z,21.52
2023-12-16T02:29:45.618Z,21.52
2023-12-16T02:30:45.765Z,21.52
2023-12-16T02:31:45.850Z,21.52
2023-12-16T02:32:45.908Z,21.49
2023-12-16T02:33:45.995Z,21.51
2023-12-16T02:34:45.994Z,21.51
2023-12-16T02:35:46.039Z,21.51
2023-12-16T02:36:46.117Z,21.51
2023-12-16T02:37:46.120Z,21.51
2023-12-16T02:38:46.217Z,21.51
2023-12-16T02:39:46.240Z,21.51
2023-12-16T02:40:46.292Z,21.51
2023-12-16T02:41:46.351Z,21.52
2023-12-16T02:42:46.414Z,21.52
2023-12-16T02:43:46.493Z,21.51
2023-12-16T02:44:46.593Z,21.52
2023-12-16T02:45:46.658Z,21.49
2023-12-16T02:46:46.736Z,21.48
2023-12-16T02:47:46.826Z,21.52
2023-12-16T02:48:46.963Z,21.51
2023-12-16T02:49:47.069Z,21.51
2023-12-16T02:50:47.001Z,21.48
2023-12-16T02:51:47.096Z,21.51
2023-12-16T02:52:47.103Z,21.52
2023-12-16T02:53:47.206Z,21.48
2023-12-16T02:54:47.274Z,21.49
2023-12-16T02:55:47.321Z,21.49
2023-12-16T02:56:47.512Z,21.48
2023-12-16T02:57:47.463Z,21.49
2023-12-16T02:58:48.462Z,21.49
2023-12-16T02:59:47.564Z,21.49
2023-12-16T03:00:47.713Z,21.49
2023-12-16T03:01:47.807Z,21.49
2023-12-16T03:02:47.848Z,21.51
2023-12-16T03:03:47.938Z,21.51
2023-12-16T03:04:47.938Z,21.48
2023-12-16T03:05:48.102Z,21.48
2023-12-16T03:06:48.099Z,21.49
2023-12-16T03:07:48.124Z,21.48
2023-12-16T03:08:48.977Z,21.49
2023-12-16T03:09:48.315Z,21.49
2023-12-16T03:10:48.342Z,21.48
2023-12-16T03:11:48.412Z,21.49
2023-12-16T03:12:48.529Z,21.46
2023-12-16T03:13:48.497Z,21.49
2023-12-16T03:14:48.554Z,21.49
2023-12-16T03:15:48.723Z,21.48
2023-12-16T03:16:48.666Z,21.51
2023-12-16T03:17:48.752Z,21.52
2023-12-16T03:18:49.532Z,21.49
2023-12-16T03:19:48.974Z,21.46
2023-12-16T03:20:48.882Z,21.49
2023-12-16T03:21:48.988Z,21.48
2023-12-16T03:22:49.006Z,21.46
2023-12-16T03:23:49.053Z,21.48
2023-12-16T03:24:49.201Z,21.49
2023-12-16T03:25:49.186Z,21.49
2023-12-16T03:26:49.273Z,21.48
2023-12-16T03:27:49.442Z,21.49
2023-12-16T03:28:49.359Z,21.45
2023-12-16T03:29:49.441Z,21.46
2023-12-16T03:30:49.568Z,21.46
2023-12-16T03:31:49.598Z,21.48
2023-12-16T03:32:49.685Z,21.46
2023-12-16T03:33:50.779Z,21.46
2023-12-16T03:34:49.834Z,21.45
2023-12-16T03:35:49.783Z,21.48
2023-12-16T03:36:49.876Z,21.46
2023-12-16T03:37:49.890Z,21.48
2023-12-16T03:38:49.952Z,21.45
2023-12-16T03:39:50.075Z,21.46
2023-12-16T03:40:50.239Z,21.45
2023-12-16T03:41:50.129Z,21.48
2023-12-16T03:42:50.255Z,21.45
2023-12-16T03:43:50.510Z,21.44
2023-12-16T03:44:50.482Z,21.45
2023-12-16T03:45:50.526Z,21.46
2023-12-16T03:46:50.565Z,21.45
2023-12-16T03:47:50.627Z,21.46
2023-12-16T03:48:50.754Z,21.48
2023-12-16T03:49:50.818Z,21.44
2023-12-16T03:50:50.739Z,21.45
2023-12-16T03:51:50.809Z,21.46
2023-12-16T03:52:50.912Z,21.45
2023-12-16T03:53:50.921Z,21.46
2023-12-16T03:54:51.052Z,21.46
2023-12-16T03:55:51.006Z,21.44
2023-12-16T03:56:51.132Z,21.45
2023-12-16T03:57:51.255Z,21.44
2023-12-16T03:58:51.313Z,21.44
2023-12-16T03:59:51.491Z,21.45
2023-12-16T04:00:52.087Z,21.44
2023-12-16T04:01:51.646Z,21.44
2023-12-16T04:02:51.537Z,21.45
2023-12-16T04:03:51.589Z,21.45
2023-12-16T04:04:51.581Z,21.44
2023-12-16T04:05:51.657Z,21.45
2023-12-16T04:06:51.794Z,21.45
2023-12-16T04:07:51.751Z,21.42
2023-12-16T04:08:51.788Z,21.42
2023-12-16T04:09:51.846Z,21.45
2023-12-16T04:10:51.885Z,21.44
2023-12-16T04:11:51.951Z,21.41
2023-12-16T04:12:51.990Z,21.44
2023-12-16T04:13:52.033Z,21.44
2023-12-16T04:14:52.086Z,21.44
2023-12-16T04:15:52.203Z,21.42
2023-12-16T04:16:52.236Z,21.44
2023-12-16T04:17:52.405Z,21.41
2023-12-16T04:18:52.445Z,21.45
2023-12-16T04:19:52.462Z,21.44
2023-12-16T04:20:52.418Z,21.42
2023-12-16T04:21:52.590Z,21.40
2023-12-16T04:22:52.520Z,21.44
2023-12-16T04:23:52.559Z,21.41
2023-12-16T04:24:52.644Z,21.41
2023-12-16T04:25:52.649Z,21.40
2023-12-16T04:26:59.866Z,21.40
2023-12-16T04:27:59.911Z,21.40
2023-12-16T04:29:00.002Z,21.40
2023-12-16T04:29:59.880Z,21.40
2023-12-16T04:31:07.214Z,21.35
2023-12-16T04:32:07.141Z,21.37
2023-12-16T04:33:07.202Z,21.37
2023-12-16T04:34:07.206Z,21.38
2023-12-16T04:35:07.218Z,21.41
2023-12-16T04:36:07.143Z,21.40
2023-12-16T04:37:07.199Z,21.40
2023-12-16T04:38:07.178Z,21.38
2023-12-16T04:39:07.145Z,21.38
2023-12-16T04:40:07.193Z,21.40
2023-12-16T04:41:07.152Z,21.40
2023-12-16T04:42:07.160Z,21.40
2023-12-16T04:43:07.166Z,21.38
2023-12-16T04:44:07.182Z,21.38
2023-12-16T04:45:07.175Z,21.38
2023-12-16T04:46:07.164Z,21.40
2023-12-16T04:47:07.244Z,21.38
2023-12-16T04:48:07.314Z,21.37
2023-12-16T04:49:07.241Z,21.40
2023-12-16T04:50:07.167Z,21.37
2023-12-16T04:51:07.728Z,21.40
2023-12-16T04:52:07.195Z,21.40
2023-12-16T04:53:07.180Z,21.40
2023-12-16T04:54:07.179Z,21.37
2023-12-16T04:55:07.248Z,21.38
2023-12-16T04:56:07.175Z,21.38
2023-12-16T04:57:07.194Z,21.35
2023-12-16T04:58:07.232Z,21.37
2023-12-16T04:59:07.178Z,21.37
2023-12-16T05:00:07.176Z,21.38
2023-12-16T05:01:07.282Z,21.38
2023-12-16T05:02:07.320Z,21.37
2023-12-16T05:03:07.182Z,21.38
2023-12-16T05:04:07.272Z,21.38
2023-12-16T05:05:07.195Z,21.35
2023-12-16T05:06:07.236Z,21.37
2023-12-16T05:07:07.247Z,21.37
2023-12-16T05:08:07.189Z,21.38
2023-12-16T05:09:07.193Z,21.38
2023-12-16T05:10:07.215Z,21.35
2023-12-16T05:11:07.302Z,21.37
2023-12-16T05:12:07.194Z,21.34
2023-12-16T05:13:07.233Z,21.35
2023-12-16T05:14:07.215Z,21.37
2023-12-16T05:15:07.207Z,21.35
2023-12-16T05:16:08.973Z,21.34
2023-12-16T05:17:07.204Z,21.35
2023-12-16T05:18:07.260Z,21.35
2023-12-16T05:19:07.345Z,21.35
2023-12-16T05:20:07.310Z,21.35
2023-12-16T05:21:07.262Z,21.37
2023-12-16T05:22:07.342Z,21.35
2023-12-16T05:23:07.310Z,21.35
2023-12-16T05:24:07.309Z,21.34
2023-12-16T05:25:07.358Z,21.35
2023-12-16T05:26:07.354Z,21.35
2023-12-16T05:27:07.395Z,21.33
2023-12-16T05:28:07.489Z,21.34
2023-12-16T05:29:07.447Z,21.34
2023-12-16T05:30:09.811Z,21.34
2023-12-16T05:31:07.548Z,21.33
2023-12-16T05:32:07.485Z,21.33
2023-12-16T05:33:07.565Z,21.34
2023-12-16T05:34:07.650Z,21.33
2023-12-16T05:35:07.487Z,21.34
2023-12-16T05:36:07.539Z,21.33
2023-12-16T05:37:07.505Z,21.33
2023-12-16T05:38:07.493Z,21.34
2023-12-16T05:39:07.495Z,21.34
2023-12-16T05:40:07.534Z,21.33
2023-12-16T05:41:07.516Z,21.34
2023-12-16T05:42:07.494Z,21.35
2023-12-16T05:43:07.526Z,21.31
2023-12-16T05:44:07.566Z,21.33
2023-12-16T05:45:07.513Z,21.31
2023-12-16T05:46:07.557Z,21.34
2023-12-16T05:47:07.495Z,21.31
2023-12-16T05:48:07.676Z,21.31
2023-12-16T05:49:07.612Z,21.33
2023-12-16T05:50:07.507Z,21.34
2023-12-16T05:51:07.513Z,21.33
2023-12-16T05:52:07.548Z,21.33
2023-12-16T05:53:07.532Z,21.33
2023-12-16T05:54:07.501Z,21.33
2023-12-16T05:55:07.554Z,21.31
2023-12-16T05:56:07.588Z,21.33
2023-12-16T05:57:07.506Z,21.33
2023-12-16T05:58:07.554Z,21.33
2023-12-16T05:59:07.518Z,21.33
2023-12-16T06:00:07.507Z,21.33
2023-12-16T06:01:07.679Z,21.33
2023-12-16T06:02:07.515Z,21.31
2023-12-16T06:03:07.598Z,21.31
2023-12-16T06:04:07.553Z,21.31
2023-12-16T06:05:07.609Z,21.31
2023-12-16T06:06:07.542Z,21.28
2023-12-16T06:07:07.558Z,21.33
2023-12-16T06:08:07.550Z,21.31
2023-12-16T06:09:07.520Z,21.27
2023-12-16T06:10:08.264Z,21.30
2023-12-16T06:11:07.521Z,21.31
2023-12-16T06:12:07.517Z,21.30
2023-12-16T06:13:07.562Z,21.33
2023-12-16T06:14:07.529Z,21.30
2023-12-16T06:15:07.538Z,21.31
2023-12-16T06:16:16.573Z,21.30
2023-12-16T06:17:08.777Z,21.30
2023-12-16T06:18:07.588Z,21.31
2023-12-16T06:19:07.689Z,21.31
2023-12-16T06:20:07.577Z,21.31
2023-12-16T06:21:07.534Z,21.30
2023-12-16T06:22:07.545Z,21.27
2023-12-16T06:23:07.533Z,21.31
2023-12-16T06:24:07.553Z,21.31
2023-12-16T06:25:07.635Z,21.28
2023-12-16T06:26:07.531Z,21.28
2023-12-16T06:27:07.539Z,21.31
2023-12-16T06:28:07.635Z,21.28
2023-12-16T06:29:07.532Z,21.28
2023-12-16T06:30:07.575Z,21.28
2023-12-16T06:31:07.635Z,21.27
2023-12-16T06:32:07.565Z,21.28
2023-12-16T06:33:07.674Z,21.28
2023-12-16T06:34:07.597Z,21.27
2023-12-16T06:35:07.568Z,21.28
2023-12-16T06:36:07.566Z,21.30
2023-12-16T06:37:07.585Z,21.27
2023-12-16T06:38:07.582Z,21.30
2023-12-16T06:39:07.585Z,21.28
2023-12-16T06:40:07.607Z,21.27
2023-12-16T06:41:07.575Z,21.27
2023-12-16T06:42:07.566Z,21.26
2023-12-16T06:43:07.663Z,21.28
2023-12-16T06:44:07.568Z,21.28
2023-12-16T06:45:07.574Z,21.28
2023-12-16T06:46:07.603Z,21.27
2023-12-16T06:47:07.583Z,21.28
2023-12-16T06:48:07.624Z,21.27
2023-12-16T06:49:07.615Z,21.30
2023-12-16T06:50:07.576Z,21.28
2023-12-16T06:51:07.605Z,21.27
2023-12-16T06:52:07.581Z,21.27
2023-12-16T06:53:07.615Z,21.27
2023-12-16T06:54:07.589Z,21.27
2023-12-16T06:55:07.724Z,21.26
2023-12-16T06:56:07.884Z,21.27
2023-12-16T06:57:07.813Z,21.26
2023-12-16T06:58:07.891Z,21.26
2023-12-16T06:59:08.764Z,21.27
2023-12-16T07:00:07.848Z,21.26
2023-12-16T07:01:07.904Z,21.26
2023-12-16T07:02:07.892Z,21.27
2023-12-16T07:03:07.880Z,21.24
2023-12-16T07:04:07.983Z,21.24
2023-12-16T07:05:07.916Z,21.26
2023-12-16T07:06:07.931Z,21.26
2023-12-16T07:07:07.939Z,21.26
2023-12-16T07:08:08.009Z,21.24
2023-12-16T07:09:07.954Z,21.24
2023-12-16T07:10:08.071Z,21.27
2023-12-16T07:11:08.080Z,21.26
2023-12-16T07:12:08.077Z,21.24
2023-12-16T07:13:08.133Z,21.24
2023-12-16T07:14:08.101Z,21.26
2023-12-16T07:15:08.105Z,21.24
2023-12-16T07:16:08.185Z,21.24
2023-12-16T07:17:08.165Z,21.24
2023-12-16T07:18:08.213Z,21.24
2023-12-16T07:19:08.291Z,21.23
2023-12-16T07:20:08.281Z,21.23
2023-12-16T07:21:08.398Z,21.24
2023-12-16T07:22:08.392Z,21.24
2023-12-16T07:23:08.476Z,21.23
2023-12-16T07:24:08.386Z,21.23
2023-12-16T07:25:08.437Z,21.23
2023-12-16T07:26:08.481Z,21.23
2023-12-16T07:27:08.413Z,21.23
2023-12-16T07:28:08.556Z,21.23
2023-12-16T07:29:08.444Z,21.24
2023-12-16T07:30:08.504Z,21.23
2023-12-16T07:31:08.694Z,21.24
2023-12-16T07:32:08.630Z,21.23
2023-12-16T07:33:08.864Z,21.23
2023-12-16T07:34:08.775Z,21.21
2023-12-16T07:35:08.821Z,21.20
2023-12-16T07:36:08.785Z,21.23
2023-12-16T07:37:08.815Z,21.21
2023-12-16T07:38:08.802Z,21.26
2023-12-16T07:39:08.810Z,21.26
2023-12-16T07:40:08.855Z,21.23
2023-12-16T07:41:08.938Z,21.23
2023-12-16T07:42:08.991Z,21.23
2023-12-16T07:43:09.008Z,21.24
2023-12-16T07:44:08.992Z,21.21
2023-12-16T07:45:09.028Z,21.24
2023-12-16T07:46:09.056Z,21.21
2023-12-16T07:47:09.064Z,21.20
2023-12-16T07:48:09.204Z,21.21
2023-12-16T07:49:09.159Z,21.21
2023-12-16T07:50:09.123Z,21.21
2023-12-16T07:51:09.244Z,21.21
2023-12-16T07:52:09.369Z,21.20
2023-12-16T07:53:09.390Z,21.23
2023-12-16T07:54:09.390Z,21.23
2023-12-16T07:55:09.453Z,21.18
2023-12-16T07:56:09.434Z,21.23
2023-12-16T07:57:09.434Z,21.23
2023-12-16T07:58:09.519Z,21.18
2023-12-16T07:59:09.521Z,21.21
2023-12-16T08:00:09.553Z,21.20
2023-12-16T08:01:10.298Z,21.20
2023-12-16T08:02:09.604Z,21.18
2023-12-16T08:03:09.646Z,21.21
2023-12-16T08:04:09.655Z,21.20
2023-12-16T08:05:09.626Z,21.18
2023-12-16T08:06:09.691Z,21.20
2023-12-16T08:07:09.781Z,21.20
2023-12-16T08:08:09.852Z,21.18
2023-12-16T08:09:09.861Z,21.21
2023-12-16T08:10:09.961Z,21.21
2023-12-16T08:11:09.909Z,21.21
2023-12-16T08:12:09.968Z,21.20
2023-12-16T08:13:10.048Z,21.21
2023-12-16T08:14:10.037Z,21.18
2023-12-16T08:15:10.152Z,21.20
2023-12-16T08:16:10.310Z,21.21
2023-12-16T08:17:10.293Z,21.18
2023-12-16T08:18:10.462Z,21.18
2023-12-16T08:19:10.461Z,21.18
2023-12-16T08:20:10.423Z,21.17
2023-12-16T08:21:10.414Z,21.18
2023-12-16T08:22:10.434Z,21.18
2023-12-16T08:23:10.415Z,21.20
2023-12-16T08:24:10.433Z,21.18
2023-12-16T08:25:10.482Z,21.18
2023-12-16T08:26:10.486Z,21.18
2023-12-16T08:27:10.519Z,21.18
2023-12-16T08:28:10.640Z,21.21
2023-12-16T08:29:10.569Z,21.17
2023-12-16T08:30:10.619Z,21.20
2023-12-16T08:31:10.691Z,21.20
2023-12-16T08:32:12.368Z,21.18
2023-12-16T08:33:10.754Z,21.18
2023-12-16T08:34:10.712Z,21.18
2023-12-16T08:35:10.944Z,21.18
2023-12-16T08:36:10.725Z,21.18
2023-12-16T08:37:10.771Z,21.15
2023-12-16T08:38:10.863Z,21.17
2023-12-16T08:39:10.813Z,21.17
2023-12-16T08:40:10.958Z,21.17
2023-12-16T08:41:10.850Z,21.18
2023-12-16T08:42:10.876Z,21.15
2023-12-16T08:43:10.928Z,21.17
2023-12-16T08:44:10.942Z,21.15
2023-12-16T08:45:10.947Z,21.20
2023-12-16T08:46:11.044Z,21.17
2023-12-16T08:47:11.007Z,21.17
2023-12-16T08:48:11.058Z,21.15
2023-12-16T08:49:11.111Z,21.17
2023-12-16T08:50:11.139Z,21.15
2023-12-16T08:51:11.105Z,21.17
2023-12-16T08:52:13.341Z,21.15
2023-12-16T08:53:11.148Z,21.15
2023-12-16T08:54:11.129Z,21.15
2023-12-16T08:55:11.160Z,21.15
2023-12-16T08:56:11.132Z,21.15
2023-12-16T08:57:11.150Z,21.17
2023-12-16T08:58:11.162Z,21.14
2023-12-16T08:59:11.161Z,21.17
2023-12-16T09:00:11.158Z,21.14
2023-12-16T09:01:11.183Z,21.15
2023-12-16T09:02:11.151Z,21.17
2023-12-16T09:03:11.180Z,21.17
2023-12-16T09:04:11.187Z,21.15
2023-12-16T09:05:11.148Z,21.17
2023-12-16T09:06:11.230Z,21.15
2023-12-16T09:07:11.177Z,21.17
2023-12-16T09:08:11.225Z,21.18
2023-12-16T09:09:13.461Z,21.21
2023-12-16T09:10:11.205Z,21.21
2023-12-16T09:11:11.190Z,21.21
2023-12-16T09:12:11.168Z,21.27
2023-12-16T09:13:11.279Z,21.26
2023-12-16T09:14:11.250Z,21.28
2023-12-16T09:15:11.160Z,21.28
2023-12-16T09:16:11.185Z,21.30
2023-12-16T09:17:11.157Z,21.31
2023-12-16T09:18:11.230Z,21.33
2023-12-16T09:19:11.237Z,21.35
2023-12-16T09:20:11.317Z,21.37
2023-12-16T09:21:11.188Z,21.37
2023-12-16T09:22:11.202Z,21.40
2023-12-16T09:23:11.163Z,21.41
2023-12-16T09:24:11.161Z,21.42
2023-12-16T09:25:11.200Z,21.44
2023-12-16T09:26:11.203Z,21.45
2023-12-16T09:27:11.170Z,21.46
2023-12-16T09:28:11.247Z,21.48
2023-12-16T09:29:11.342Z,21.51
2023-12-16T09:30:11.203Z,21.51
2023-12-16T09:31:11.249Z,21.53
2023-12-16T09:32:11.168Z,21.53
2023-12-16T09:33:11.239Z,21.58
2023-12-16T09:34:11.210Z,21.58
2023-12-16T09:35:11.813Z,21.59
2023-12-16T09:36:13.603Z,21.61
2023-12-16T09:37:11.190Z,21.62
2023-12-16T09:38:11.258Z,21.61
2023-12-16T09:39:11.198Z,21.68
2023-12-16T09:40:11.204Z,21.68
2023-12-16T09:41:11.174Z,21.69
2023-12-16T09:42:11.187Z,21.70
2023-12-16T09:43:11.230Z,21.72
2023-12-16T09:44:11.188Z,21.75
2023-12-16T09:45:11.176Z,21.75
2023-12-16T09:46:11.230Z,21.76
2023-12-16T09:47:11.176Z,21.80
2023-12-16T09:48:11.270Z,21.80
2023-12-16T09:49:11.226Z,21.82
2023-12-16T09:50:11.197Z,21.83
2023-12-16T09:51:11.186Z,21.83
2023-12-16T09:52:11.196Z,21.87
2023-12-16T09:53:11.188Z,21.89
2023-12-16T09:54:11.197Z,21.89
2023-12-16T09:55:11.249Z,21.92
2023-12-16T09:56:11.192Z,21.93
2023-12-16T09:57:11.190Z,21.94
2023-12-16T09:58:11.226Z,21.96
2023-12-16T09:59:11.194Z,21.97
2023-12-16T10:00:11.224Z,22.00
2023-12-16T10:01:11.285Z,22.00
2023-12-16T10:02:11.290Z,22.01
2023-12-16T10:03:11.284Z,22.04
2023-12-16T10:04:11.265Z,22.03
2023-12-16T10:05:11.311Z,22.07
2023-12-16T10:06:11.195Z,22.08
2023-12-16T10:07:11.871Z,22.11
2023-12-16T10:08:11.204Z,22.10
2023-12-16T10:09:11.204Z,22.13
2023-12-16T10:10:11.248Z,22.11
2023-12-16T10:11:13.780Z,22.17
2023-12-16T10:12:11.239Z,22.15
2023-12-16T10:13:11.222Z,22.21
2023-12-16T10:14:13.969Z,22.18
2023-12-16T10:15:11.204Z,22.22
2023-12-16T10:16:11.220Z,22.22
2023-12-16T10:17:11.213Z,22.24
2023-12-16T10:18:11.270Z,22.25
2023-12-16T10:19:11.291Z,22.27
2023-12-16T10:20:11.237Z,22.28
2023-12-16T10:21:15.830Z,22.31
2023-12-16T10:22:12.503Z,22.29
2023-12-16T10:23:11.217Z,22.31
2023-12-16T10:24:11.228Z,22.34
2023-12-16T10:25:11.313Z,22.35
2023-12-16T10:26:11.227Z,22.35
2023-12-16T10:27:11.348Z,22.38
2023-12-16T10:28:12.762Z,22.39
2023-12-16T10:29:11.230Z,22.39
2023-12-16T10:30:11.342Z,22.41
2023-12-16T10:31:11.823Z,22.42
2023-12-16T10:32:11.372Z,22.45
2023-12-16T10:33:11.362Z,22.45
2023-12-16T10:34:11.421Z,22.45
2023-12-16T10:35:11.449Z,22.48
2023-12-16T10:36:11.490Z,22.48
2023-12-16T10:37:12.289Z,22.48
2023-12-16T10:38:11.846Z,22.51
2023-12-16T10:39:11.749Z,22.52
2023-12-16T10:40:12.442Z,22.52
2023-12-16T10:41:11.844Z,22.55
2023-12-16T10:42:11.892Z,22.55
2023-12-16T10:43:12.018Z,22.56
2023-12-16T10:44:12.050Z,22.56
2023-12-16T10:45:12.093Z,22.59
2023-12-16T10:46:12.180Z,22.60
2023-12-16T10:47:12.217Z,22.59
2023-12-16T10:48:12.368Z,22.65
2023-12-16T10:49:12.416Z,22.63
2023-12-16T10:50:12.382Z,22.67
2023-12-16T10:51:12.424Z,22.67
2023-12-16T10:52:12.506Z,22.67
2023-12-16T10:53:12.533Z,22.70
2023-12-16T10:54:12.596Z,22.70
2023-12-16T10:55:12.789Z,22.72
2023-12-16T10:56:12.731Z,22.73
2023-12-16T10:57:12.716Z,22.76
2023-12-16T10:58:12.789Z,22.77
2023-12-16T10:59:12.804Z,22.79
2023-12-16T11:00:12.859Z,22.79
2023-12-16T11:01:12.970Z,22.83
2023-12-16T11:02:12.955Z,22.82
2023-12-16T11:03:12.976Z,22.86
2023-12-16T11:04:13.031Z,22.85
2023-12-16T11:05:13.035Z,22.89
2023-12-16T11:06:13.039Z,22.87
2023-12-16T11:07:13.090Z,22.90
2023-12-16T11:08:13.129Z,22.91
2023-12-16T11:09:13.123Z,22.93
2023-12-16T11:10:13.197Z,22.94
2023-12-16T11:11:13.167Z,22.96
2023-12-16T11:12:13.161Z,22.97
2023-12-16T11:13:13.230Z,22.97
2023-12-16T11:14:13.213Z,22.97
2023-12-16T11:15:13.216Z,23.01
2023-12-16T11:16:13.279Z,23.01
2023-12-16T11:17:13.247Z,23.03
2023-12-16T11:18:13.384Z,23.04
2023-12-16T11:19:13.495Z,23.06
2023-12-16T11:20:13.284Z,23.01
2023-12-16T11:21:13.302Z,23.03
2023-12-16T11:22:13.309Z,23.04
2023-12-16T11:23:13.315Z,23.01
2023-12-16T11:24:13.307Z,23.03
2023-12-16T11:25:13.405Z,23.00
2023-12-16T11:26:13.413Z,23.00
2023-12-16T11:27:13.347Z,23.00
2023-12-16T11:28:13.399Z,23.01
2023-12-16T11:29:13.401Z,23.01
2023-12-16T11:30:13.496Z,23.01
2023-12-16T11:31:14.405Z,23.04
2023-12-16T11:32:14.358Z,23.04
2023-12-16T11:33:13.509Z,23.04
2023-12-16T11:34:13.480Z,23.07
2023-12-16T11:35:13.451Z,23.06
2023-12-16T11:36:13.513Z,23.07
2023-12-16T11:37:13.605Z,23.10
2023-12-16T11:38:13.480Z,23.10
2023-12-16T11:39:13.483Z,23.11
2023-12-16T11:40:13.513Z,23.15
2023-12-16T11:41:13.539Z,23.15
2023-12-16T11:42:13.508Z,23.15
2023-12-16T11:43:13.600Z,23.18
2023-12-16T11:44:13.599Z,23.21
2023-12-16T11:45:14.355Z,23.21
2023-12-16T11:46:13.663Z,23.22
2023-12-16T11:47:14.358Z,23.22
2023-12-16T11:48:13.815Z,23.25
2023-12-16T11:49:13.929Z,23.25
2023-12-16T11:50:13.979Z,23.28
2023-12-16T11:51:13.979Z,23.29
2023-12-16T11:52:14.076Z,23.31
2023-12-16T11:53:14.111Z,23.31
2023-12-16T11:54:14.293Z,23.28
2023-12-16T11:55:14.273Z,23.26
2023-12-16T11:56:14.396Z,23.25
2023-12-16T11:57:14.362Z,23.22
2023-12-16T11:58:14.462Z,23.21
2023-12-16T11:59:14.513Z,23.21
2023-12-16T12:00:14.595Z,23.17
2023-12-16T12:01:15.493Z,23.18
2023-12-16T12:02:14.702Z,23.17
2023-12-16T12:03:14.768Z,23.15
2023-12-16T12:04:14.856Z,23.13
2023-12-16T12:05:15.004Z,23.14
2023-12-16T12:06:15.032Z,23.14
2023-12-16T12:07:15.017Z,23.11
2023-12-16T12:08:15.012Z,23.08
2023-12-16T12:09:15.863Z,23.10
2023-12-16T12:10:15.015Z,23.10
2023-12-16T12:11:15.074Z,23.08
2023-12-16T12:12:15.794Z,23.08
2023-12-16T12:13:15.102Z,23.06
2023-12-16T12:14:15.045Z,23.06
2023-12-16T12:15:20.659Z,23.01
2023-12-16T12:16:15.195Z,23.04
2023-12-16T12:17:15.131Z,23.04
2023-12-16T12:18:15.121Z,23.03
2023-12-16T12:19:15.174Z,23.00
2023-12-16T12:20:15.064Z,23.00
2023-12-16T12:21:15.087Z,23.00
2023-12-16T12:22:15.139Z,22.97
2023-12-16T12:23:15.093Z,22.98
2023-12-16T12:24:15.072Z,22.94
2023-12-16T12:25:15.107Z,22.96
2023-12-16T12:26:15.931Z,22.94
2023-12-16T12:27:15.077Z,22.91
2023-12-16T12:28:15.086Z,22.93
2023-12-16T12:29:15.098Z,22.90
2023-12-16T12:30:15.187Z,22.87
2023-12-16T12:31:15.081Z,22.87
2023-12-16T12:32:15.080Z,22.86
2023-12-16T12:33:15.178Z,22.85
2023-12-16T12:34:15.153Z,22.83
2023-12-16T12:35:15.381Z,22.80
2023-12-16T12:36:15.178Z,22.83
2023-12-16T12:37:15.100Z,22.79
2023-12-16T12:38:15.098Z,22.77
2023-12-16T12:39:15.091Z,22.77
2023-12-16T12:40:16.116Z,22.76
2023-12-16T12:41:15.131Z,22.73
2023-12-16T12:42:15.087Z,22.73
2023-12-16T12:43:15.095Z,22.72
2023-12-16T12:44:15.084Z,22.70
2023-12-16T12:45:15.094Z,22.69
2023-12-16T12:46:15.087Z,22.67
2023-12-16T12:47:15.088Z,22.67
2023-12-16T12:48:15.603Z,22.66
2023-12-16T12:49:15.336Z,22.65
2023-12-16T12:50:15.098Z,22.63
2023-12-16T12:51:15.116Z,22.63
2023-12-16T12:52:15.121Z,22.63
2023-12-16T12:53:20.763Z,22.62